Time;durP1;ratioP1;P1;durP2;ratioP2;P2;SDS_P1;SDS_P2;PMS_P1;PMS_P2;Temp;Humidity;BMP_temperature;BMP_pressure;BME280_temperature;BME280_humidity;BME280_pressure;Samples;Min_cycle;Max_cycle;Signal;HPM_P1;HPM_P2
2022/05/31 00:01:51;;;;;;;;;20.67;19.00;;;;;15.89;100.00;100701.16;5017492;28;45307;-79
2022/05/31 00:04:17;;;;;;;;;14.33;12.00;;;;;15.72;100.00;100678.94;4997018;28;45695;-79
2022/05/31 00:06:44;;;;;;;;;8.33;8.33;;;;;15.71;100.00;100672.53;5011569;28;47669;-79
2022/05/31 00:09:10;;;;;;;;;8.67;5.00;;;;;15.67;100.00;100670.50;5012900;28;45459;-78
2022/05/31 00:11:36;;;;;;;;;7.33;7.00;;;;;15.83;100.00;100704.91;5014704;28;45285;-79
2022/05/31 00:14:03;;;;;;;;;4.00;3.00;;;;;15.78;100.00;100697.34;4995385;28;46267;-79
2022/05/31 00:16:28;;;;;;;;;5.00;4.00;;;;;15.79;100.00;100692.63;5015454;28;46003;-79
2022/05/31 00:18:54;;;;;;;;;5.00;5.00;;;;;15.78;100.00;100694.56;5015741;28;45726;-80
2022/05/31 00:21:19;;;;;;;;;4.00;4.00;;;;;15.76;100.00;100690.31;5014001;28;45400;-78
2022/05/31 00:23:45;;;;;;;;;7.00;5.00;;;;;15.74;100.00;100689.75;5012932;28;45650;-79
2022/05/31 00:26:11;;;;;;;;;6.00;4.00;;;;;15.62;100.00;100670.41;5014535;28;45728;-80
2022/05/31 00:28:36;;;;;;;;;5.33;4.00;;;;;15.76;100.00;100695.84;5014292;28;45483;-79
2022/05/31 00:31:03;;;;;;;;;6.67;5.00;;;;;15.70;100.00;100693.00;5007664;28;45594;-79
2022/05/31 00:33:29;;;;;;;;;4.67;4.00;;;;;15.73;100.00;100691.66;5015112;28;45775;-78
2022/05/31 00:35:55;;;;;;;;;3.00;3.00;;;;;15.68;100.00;100694.31;5012852;28;46545;-78
2022/05/31 00:38:21;;;;;;;;;3.00;3.00;;;;;15.74;100.00;100687.81;5013142;28;45416;-78
2022/05/31 00:40:47;;;;;;;;;4.00;3.00;;;;;15.70;100.00;100684.72;5012925;28;45535;-81
2022/05/31 00:43:16;;;;;;;;;3.00;3.00;;;;;15.67;100.00;100687.97;5016388;28;45361;-83
2022/05/31 00:45:54;;;;;;;;;3.00;3.00;;;;;15.76;100.00;100701.38;5022717;28;46039;-81
2022/05/31 00:48:27;;;;;;;;;2.00;2.00;;;;;15.75;100.00;100691.41;5022911;28;45827;-83
2022/05/31 00:51:00;;;;;;;;;3.00;2.67;;;;;15.74;100.00;100684.22;5006177;28;45723;-83
2022/05/31 00:53:30;;;;;;;;;3.67;3.67;;;;;15.76;100.00;100690.31;4993007;28;45957;-80
2022/05/31 00:56:07;;;;;;;;;3.33;3.33;;;;;15.71;100.00;100678.06;5027651;28;47373;-79
2022/05/31 00:58:37;;;;;;;;;3.00;3.00;;;;;15.71;100.00;100686.38;5003330;28;46133;-80
2022/05/31 01:01:09;;;;;;;;;3.00;3.00;;;;;15.74;100.00;100689.75;5027917;28;45561;-79
2022/05/31 01:03:38;;;;;;;;;3.67;3.00;;;;;15.73;100.00;100699.13;5016251;28;45629;-79
2022/05/31 01:06:04;;;;;;;;;4.00;3.00;;;;;15.62;100.00;100679.53;5015282;28;46252;-78
2022/05/31 01:08:29;;;;;;;;;3.00;3.00;;;;;15.74;100.00;100684.22;5014171;28;45462;-79
2022/05/31 01:10:55;;;;;;;;;3.00;3.00;;;;;15.73;100.00;100680.59;5013980;28;45697;-77
2022/05/31 01:13:21;;;;;;;;;3.00;3.00;;;;;15.76;100.00;100684.81;4996708;28;45899;-80
2022/05/31 01:15:47;;;;;;;;;8.33;4.67;;;;;15.65;100.00;100667.16;4997383;28;48077;-79
2022/05/31 01:18:14;;;;;;;;;5.00;3.00;;;;;15.77;100.00;100697.56;5016222;28;45384;-78
2022/05/31 01:20:40;;;;;;;;;4.00;2.00;;;;;15.77;100.00;100690.09;4995884;28;45628;-80
2022/05/31 01:23:14;;;;;;;;;2.00;2.00;;;;;15.79;100.00;100684.34;5013787;28;45883;-79
2022/05/31 01:25:58;;;;;;;;;3.00;3.00;;;;;15.79;100.00;100687.94;5014146;28;45875;-80
2022/05/31 01:28:52;;;;;;;;;2.00;2.00;;;;;15.80;100.00;100683.25;5013717;28;45711;-78
2022/05/31 01:31:41;;;;;;;;;2.00;2.00;;;;;15.82;100.00;100690.25;4984945;28;45725;-80
2022/05/31 01:35:37;;;;;;;;;4.00;2.67;;;;;15.80;100.00;100694.31;5091138;27;45433;-75
2022/05/31 01:38:08;;;;;;;;;3.33;3.33;;;;;15.87;100.00;100682.03;5088633;27;45665;-75
2022/05/31 01:40:59;;;;;;;;;3.67;3.00;;;;;15.89;100.00;100688.16;5088540;27;45511;-74
2022/05/31 01:43:25;;;;;;;;;5.67;3.67;;;;;15.88;100.00;100686.50;5078971;27;45638;-75
2022/05/31 01:46:15;;;;;;;;;3.00;3.00;;;;;15.88;100.00;100686.50;5087817;27;46359;-75
2022/05/31 01:48:42;;;;;;;;;2.00;2.00;;;;;15.87;100.00;100684.78;5085176;27;45769;-73
2022/05/31 01:51:11;;;;;;;;;1.00;1.00;;;;;15.85;100.00;100678.69;5122283;27;45691;-75
2022/05/31 01:53:37;;;;;;;;;4.00;2.33;;;;;15.84;100.00;100673.41;5089441;27;45436;-75
2022/05/31 01:56:03;;;;;;;;;2.33;2.33;;;;;15.85;100.00;100683.34;5088104;27;45465;-74
2022/05/31 01:58:33;;;;;;;;;3.00;3.00;;;;;15.82;100.00;100694.91;5087897;27;45411;-75
2022/05/31 02:01:04;;;;;;;;;2.00;2.00;;;;;15.82;100.00;100684.72;5088462;27;45635;-74
2022/05/31 02:03:31;;;;;;;;;1.33;1.33;;;;;15.82;100.00;100689.38;5085719;27;45537;-73
2022/05/31 02:05:57;;;;;;;;;2.33;2.00;;;;;15.80;100.00;100675.78;5085810;27;46116;-75
2022/05/31 02:08:25;;;;;;;;;3.00;1.67;;;;;15.79;100.00;100684.34;5083863;27;45782;-74
2022/05/31 02:10:50;;;;;;;;;2.33;2.33;;;;;15.77;100.00;100680.97;5087039;27;45341;-73
2022/05/31 02:13:18;;;;;;;;;2.00;2.00;;;;;15.75;100.00;100683.09;5088396;27;45851;-75
2022/05/31 02:15:44;;;;;;;;;2.00;2.00;;;;;15.74;100.00;100681.44;5089764;27;45446;-74
2022/05/31 02:18:12;;;;;;;;;3.00;3.00;;;;;15.74;100.00;100690.56;5090068;27;45746;-75
2022/05/31 02:20:38;;;;;;;;;2.00;2.00;;;;;15.73;100.00;100682.53;5085991;27;45612;-74
2022/05/31 02:23:04;;;;;;;;;4.33;2.67;;;;;15.71;100.00;100685.53;5087167;27;45400;-74
2022/05/31 02:25:29;;;;;;;;;4.33;2.67;;;;;15.71;100.00;100688.31;5079343;27;47362;-76
2022/05/31 02:27:55;;;;;;;;;8.00;3.00;;;;;15.67;100.00;100678.81;5088930;27;45385;-74
2022/05/31 02:30:21;;;;;;;;;4.00;2.33;;;;;15.67;100.00;100682.44;5090034;27;45411;-73
2022/05/31 02:32:46;;;;;;;;;4.00;4.00;;;;;15.69;100.00;100698.78;5089975;27;45796;-74
2022/05/31 02:35:12;;;;;;;;;4.00;2.33;;;;;15.69;100.00;100694.06;5089565;27;45667;-75
2022/05/31 02:37:38;;;;;;;;;2.00;2.00;;;;;15.68;100.00;100688.78;5089645;27;45682;-75
2022/05/31 02:40:05;;;;;;;;;3.67;3.67;;;;;15.69;100.00;100694.06;5090164;27;45421;-74
2022/05/31 02:42:31;;;;;;;;;4.33;4.33;;;;;15.67;100.00;100676.91;5089855;27;45841;-74
2022/05/31 02:44:57;;;;;;;;;2.33;2.00;;;;;15.70;100.00;100681.94;5087948;27;45393;-72
2022/05/31 02:47:22;;;;;;;;;7.67;4.00;;;;;15.70;100.00;100684.72;5075742;27;45387;-75
2022/05/31 02:49:48;;;;;;;;;3.33;3.00;;;;;15.71;100.00;100685.53;5076585;27;45368;-77
2022/05/31 02:52:14;;;;;;;;;3.00;3.00;;;;;15.68;100.00;100674.97;5076505;27;45372;-76
2022/05/31 02:54:40;;;;;;;;;6.33;2.67;;;;;15.69;100.00;100680.25;5075579;27;47048;-76
2022/05/31 02:57:06;;;;;;;;;3.00;1.33;;;;;15.68;100.00;100673.03;5076522;27;45696;-75
2022/05/31 02:59:31;;;;;;;;;3.67;3.00;;;;;15.71;100.00;100685.53;5076933;27;45328;-74
2022/05/31 03:01:57;;;;;;;;;2.00;2.00;;;;;15.67;100.00;100682.44;5076405;28;46736;-75
2022/05/31 03:04:23;;;;;;;;;4.00;4.00;;;;;15.71;100.00;100694.66;5074730;28;47114;-74
2022/05/31 03:06:49;;;;;;;;;2.00;2.00;;;;;15.71;100.00;100693.84;5075742;27;45693;-75
2022/05/31 03:09:15;;;;;;;;;4.00;4.00;;;;;15.73;100.00;100685.28;5074831;27;45733;-74
2022/05/31 03:11:43;;;;;;;;;3.33;2.00;;;;;15.74;100.00;100692.50;5075868;27;45537;-75
2022/05/31 03:14:20;;;;;;;;;3.33;3.33;;;;;15.75;100.00;100699.69;5075496;28;46198;-75
2022/05/31 03:16:51;;;;;;;;;6.67;2.00;;;;;15.75;100.00;100699.69;5075764;27;45474;-75
2022/05/31 03:19:22;;;;;;;;;2.00;2.00;;;;;15.75;100.00;100689.50;5074456;27;45407;-75
2022/05/31 03:21:54;;;;;;;;;1.00;1.00;;;;;15.76;100.00;100690.31;5073822;27;45921;-76
2022/05/31 03:24:24;;;;;;;;;1.33;1.33;;;;;15.77;100.00;100692.03;5060191;28;46897;-77
2022/05/31 03:26:54;;;;;;;;;4.00;1.00;;;;;15.76;100.00;100684.81;5071920;27;45425;-76
2022/05/31 03:29:20;;;;;;;;;3.00;3.00;;;;;15.76;100.00;100682.03;5068586;27;45328;-75
2022/05/31 03:31:46;;;;;;;;;2.00;2.00;;;;;15.74;100.00;100675.91;5071094;27;45453;-78
2022/05/31 03:34:11;;;;;;;;;3.00;3.00;;;;;15.74;100.00;100676.75;5073073;27;45616;-76
2022/05/31 03:36:37;;;;;;;;;2.00;2.00;;;;;15.73;100.00;100679.75;5074510;27;45765;-75
2022/05/31 03:39:03;;;;;;;;;4.33;3.00;;;;;15.71;100.00;100683.59;5074482;27;45316;-76
2022/05/31 03:41:32;;;;;;;;;2.67;2.67;;;;;15.67;100.00;100687.97;5073095;28;47335;-76
2022/05/31 03:43:58;;;;;;;;;4.33;3.00;;;;;15.66;100.00;100688.22;5074593;27;46330;-75
2022/05/31 03:46:25;;;;;;;;;3.00;3.00;;;;;15.63;100.00;100691.44;5074526;27;45451;-74
2022/05/31 03:48:50;;;;;;;;;3.00;3.00;;;;;15.61;100.00;100691.69;5075111;27;45726;-76
2022/05/31 03:51:15;;;;;;;;;2.33;2.33;;;;;15.58;100.00;100688.56;5073757;27;45934;-74
2022/05/31 03:53:41;;;;;;;;;3.00;3.00;;;;;15.58;100.00;100689.41;5072458;27;45312;-75
2022/05/31 03:56:11;;;;;;;;;2.00;2.00;;;;;15.56;100.00;100686.06;5072561;27;45384;-75
2022/05/31 03:58:38;;;;;;;;;2.00;2.00;;;;;15.60;100.00;100691.91;5071653;27;45625;-76
2022/05/31 04:01:04;;;;;;;;;4.00;4.00;;;;;15.62;100.00;100690.59;5069619;27;45520;-76
2022/05/31 04:03:29;;;;;;;;;2.33;2.00;;;;;15.65;100.00;100686.53;5061999;28;45722;-76
2022/05/31 04:05:55;;;;;;;;;2.00;2.00;;;;;15.67;100.00;100687.09;5066816;27;45480;-74
2022/05/31 04:08:21;;;;;;;;;1.67;1.67;;;;;15.69;100.00;100684.94;5059427;27;45416;-76
2022/05/31 04:10:47;;;;;;;;;2.00;2.00;;;;;15.70;100.00;100693.00;5067074;28;45648;-75
2022/05/31 04:13:15;;;;;;;;;3.67;2.67;;;;;15.70;100.00;100692.16;5071824;27;46127;-75
2022/05/31 04:15:41;;;;;;;;;3.00;2.00;;;;;15.74;100.00;100687.81;5072781;27;45522;-75
2022/05/31 04:18:08;;;;;;;;;2.67;2.67;;;;;15.73;100.00;100675.06;5071885;27;45483;-74
2022/05/31 04:20:34;;;;;;;;;2.67;2.67;;;;;15.74;100.00;100684.22;5057552;28;45356;-76
2022/05/31 04:25:45;;;;;;;;;2.00;2.00;;;;;15.78;100.00;100686.28;5059670;27;45265;-75
2022/05/31 04:28:11;;;;;;;;;1.00;1.00;;;;;15.80;100.00;100688.78;5060117;27;45334;-76
2022/05/31 04:30:38;;;;;;;;;3.00;2.00;;;;;15.82;100.00;100683.84;5059365;28;46150;-76
2022/05/31 04:33:04;;;;;;;;;3.00;2.00;;;;;15.86;100.00;100674.81;5101249;27;47408;-76
2022/05/31 04:35:29;;;;;;;;;3.00;2.00;;;;;15.90;100.00;100689.00;5072968;27;45450;-78
2022/05/31 04:37:54;;;;;;;;;8.33;7.67;;;;;15.90;100.00;100686.25;5073707;27;45389;-78
2022/05/31 04:40:20;;;;;;;;;19.33;14.67;;;;;15.95;100.00;100686.31;5074042;28;45404;-77
2022/05/31 04:42:46;;;;;;;;;7.33;6.33;;;;;16.00;100.00;100685.59;5074853;27;45574;-78
2022/05/31 04:45:11;;;;;;;;;4.33;3.33;;;;;16.02;100.00;100689.78;5072319;28;45425;-77
2022/05/31 04:47:37;;;;;;;;;7.67;6.00;;;;;16.04;100.00;100684.00;5070154;27;45757;-78
2022/05/31 04:50:03;;;;;;;;;6.67;5.33;;;;;16.08;100.00;100684.34;5075979;27;45821;-76
2022/05/31 04:52:28;;;;;;;;;6.00;3.67;;;;;16.09;100.00;100691.56;5073536;27;46408;-75
2022/05/31 04:54:54;;;;;;;;;5.33;5.33;;;;;16.11;100.00;100681.94;5074079;27;45341;-77
2022/05/31 04:57:19;;;;;;;;;6.00;5.00;;;;;16.14;100.00;100691.69;5074097;27;45256;-76
2022/05/31 04:59:45;;;;;;;;;9.33;9.33;;;;;16.14;100.00;100686.97;5107043;27;45794;-78
2022/05/31 05:02:11;;;;;;;;;8.00;6.33;;;;;16.21;100.00;100697.88;5079732;27;46957;-78
2022/05/31 05:04:36;;;;;;;;;8.33;5.67;;;;;16.26;100.00;100697.13;5062184;27;45368;-79
2022/05/31 05:07:02;;;;;;;;;10.00;9.00;;;;;16.32;100.00;100697.00;5061137;27;45693;-78
2022/05/31 05:09:27;;;;;;;;;6.33;5.33;;;;;16.35;100.00;100699.25;5060067;27;45499;-78
2022/05/31 05:11:53;;;;;;;;;4.33;4.33;;;;;16.53;100.00;100711.22;5068570;28;46410;-78
2022/05/31 05:14:18;;;;;;;;;6.33;4.00;;;;;16.70;100.00;100714.00;5066916;27;45794;-69
2022/05/31 05:16:44;;;;;;;;;5.33;5.00;;;;;16.87;100.00;100714.03;5070507;27;45482;-70
2022/05/31 05:19:10;;;;;;;;;4.33;4.33;;;;;16.99;100.00;100716.72;5062994;27;46237;-69
2022/05/31 05:21:35;;;;;;;;;9.67;8.67;;;;;17.08;100.00;100707.72;5063256;27;46676;-69
2022/05/31 05:24:00;;;;;;;;;3.00;3.00;;;;;17.17;100.00;100712.84;5061720;28;45396;-70
2022/05/31 05:26:26;;;;;;;;;5.00;4.00;;;;;17.27;100.00;100708.28;5068318;27;45451;-68
2022/05/31 05:31:39;;;;;;;;;5.00;5.00;;;;;17.44;100.00;100712.94;5064636;27;45732;-69
2022/05/31 05:34:05;;;;;;;;;4.67;4.00;;;;;17.51;100.00;100715.56;5062861;28;45593;-72
2022/05/31 05:36:31;;;;;;;;;5.67;4.00;;;;;17.64;100.00;100715.19;5064859;27;45865;-70
2022/05/31 05:38:56;;;;;;;;;4.00;4.00;;;;;17.75;100.00;100716.13;5063831;27;45324;-72
2022/05/31 05:41:24;;;;;;;;;4.00;4.00;;;;;17.87;100.00;100719.63;5064569;28;45917;-70
2022/05/31 05:43:50;;;;;;;;;4.00;4.00;;;;;17.95;100.00;100710.88;5085507;27;45813;-69
2022/05/31 05:46:22;;;;;;;;;6.00;4.33;;;;;18.03;100.00;100717.91;5069543;28;45661;-70
2022/05/31 05:48:48;;;;;;;;;8.33;5.00;;;;;18.11;100.00;100711.91;5068562;27;45298;-72
2022/05/31 05:51:20;;;;;;;;;4.00;3.00;;;;;18.20;100.00;100726.13;5065236;27;45738;-72
2022/05/31 05:53:45;;;;;;;;;8.00;7.33;;;;;18.29;100.00;100726.53;5069959;28;45765;-70
2022/05/31 05:56:12;;;;;;;;;5.00;3.00;;;;;18.41;100.00;100732.75;5062417;28;45786;-71
2022/05/31 05:58:37;;;;;;;;;5.00;4.00;;;;;18.57;100.00;100732.94;5071136;27;45606;-70
2022/05/31 06:01:06;;;;;;;;;7.33;6.00;;;;;18.75;100.00;100740.88;5065146;27;46252;-71
2022/05/31 06:03:42;;;;;;;;;11.67;8.67;;;;;18.86;100.00;100731.56;5060736;27;45401;-71
2022/05/31 06:06:09;;;;;;;;;8.67;5.33;;;;;18.96;100.00;100736.34;5062761;27;45741;-70
2022/05/31 06:08:44;;;;;;;;;4.67;4.33;;;;;19.07;100.00;100725.31;5055886;28;45835;-73
2022/05/31 06:11:16;;;;;;;;;7.00;4.00;;;;;19.30;100.00;100738.00;5060449;27;45618;-71
2022/05/31 06:13:59;;;;;;;;;5.67;5.67;;;;;19.55;100.00;100743.72;5091760;27;45541;-70
2022/05/31 06:16:30;;;;;;;;;6.00;4.00;;;;;19.90;100.00;100728.34;5061912;27;45869;-70
2022/05/31 06:19:03;;;;;;;;;5.67;5.00;;;;;20.30;98.45;100731.56;5062443;27;45846;-72
2022/05/31 06:21:29;;;;;;;;;8.67;6.33;;;;;20.63;94.97;100733.00;5068820;27;45742;-71
2022/05/31 06:23:55;;;;;;;;;7.33;6.00;;;;;21.28;94.48;100732.44;5095478;27;45424;-72
2022/05/31 06:26:21;;;;;;;;;4.00;4.00;;;;;21.88;88.66;100739.31;5066915;27;45909;-70
2022/05/31 06:28:47;;;;;;;;;6.00;2.67;;;;;22.22;87.60;100745.03;5070461;27;45721;-79
2022/05/31 06:31:13;;;;;;;;;3.00;3.00;;;;;22.56;84.76;100744.31;5067953;28;46121;-79
2022/05/31 06:33:38;;;;;;;;;6.33;3.67;;;;;23.41;80.19;100750.59;5065684;27;45905;-77
2022/05/31 06:36:07;;;;;;;;;5.67;5.00;;;;;24.50;74.85;100745.38;5069362;27;45974;-80
2022/05/31 06:38:33;;;;;;;;;9.67;5.33;;;;;26.10;69.24;100748.22;5067099;27;45843;-80
2022/05/31 06:40:58;;;;;;;;;5.00;5.00;;;;;27.79;65.24;100752.50;5069886;27;46485;-77
2022/05/31 06:43:24;;;;;;;;;1.00;1.00;;;;;29.62;57.27;100748.09;5075804;27;45470;-78
2022/05/31 06:45:50;;;;;;;;;6.00;4.67;;;;;31.44;46.52;100747.13;5061307;27;46000;-78
2022/05/31 06:48:16;;;;;;;;;5.67;5.00;;;;;33.01;37.57;100746.03;5073217;27;45668;-80
2022/05/31 06:50:42;;;;;;;;;5.00;5.00;;;;;34.50;36.20;100740.13;5073296;27;45638;-79
2022/05/31 06:58:40;;;;;;;;;3.50;3.00;;;;;35.52;31.18;100736.06;5065359;27;45394;-81
2022/05/31 07:01:09;;;;;;;;;8.67;5.00;;;;;35.68;29.73;100738.81;5074038;27;45765;-80
2022/05/31 07:03:34;;;;;;;;;7.00;4.75;;;;;35.33;30.02;100731.25;5082653;27;45668;-69
2022/05/31 07:06:00;;;;;;;;;4.25;4.25;;;;;34.90;30.10;100738.94;5072494;27;45457;-70
2022/05/31 07:08:25;;;;;;;;;3.75;3.50;;;;;35.04;30.21;100738.41;5074482;27;45501;-79
2022/05/31 07:10:51;;;;;;;;;5.67;3.67;;;;;35.52;28.82;100741.78;5075674;27;46201;-80
2022/05/31 07:13:18;;;;;;;;;2.25;2.25;;;;;36.82;26.60;100743.81;5074437;27;45395;-68
2022/05/31 07:15:44;;;;;;;;;4.33;4.33;;;;;37.83;24.57;100734.22;5074207;27;45689;-69
2022/05/31 07:18:09;;;;;;;;;5.67;5.33;;;;;38.62;22.46;100731.06;5076720;27;45947;-70
2022/05/31 07:20:35;;;;;;;;;3.00;3.00;;;;;39.36;22.79;100734.63;5073020;27;45735;-70
2022/05/31 07:23:01;;;;;;;;;2.00;2.00;;;;;39.85;20.73;100740.81;5075663;28;45322;-72
2022/05/31 07:25:26;;;;;;;;;5.00;4.00;;;;;39.79;21.00;100731.78;5075246;27;45420;-78
2022/05/31 07:27:52;;;;;;;;;4.50;3.00;;;;;39.44;21.63;100739.13;5061917;28;45777;-69
2022/05/31 07:30:18;;;;;;;;;5.33;3.00;;;;;39.40;21.30;100737.50;5072030;27;46121;-69
2022/05/31 07:32:44;;;;;;;;;3.00;3.00;;;;;39.47;21.05;100738.31;5075850;27;45448;-77
2022/05/31 07:35:09;;;;;;;;;2.00;2.00;;;;;40.06;20.70;100740.81;5082228;27;45350;-71
2022/05/31 07:37:35;;;;;;;;;1.50;1.50;;;;;40.21;20.01;100740.78;5075614;27;45615;-69
2022/05/31 07:40:01;;;;;;;;;3.25;2.75;;;;;39.74;19.96;100734.28;5073997;27;45424;-70
2022/05/31 07:42:27;;;;;;;;;2.00;2.00;;;;;38.97;20.04;100738.19;5073204;27;45366;-69
2022/05/31 07:44:54;;;;;;;;;1.50;1.00;;;;;39.32;20.14;100733.81;5065336;27;45362;-70
2022/05/31 07:47:20;;;;;;;;;1.67;1.67;;;;;40.55;19.59;100741.13;5060899;27;45691;-70
2022/05/31 07:49:46;;;;;;;;;3.00;3.00;;;;;41.51;17.91;100729.53;5055776;27;45878;-69
2022/05/31 07:52:11;;;;;;;;;3.25;3.00;;;;;42.24;17.01;100736.31;5055654;27;45423;-70
2022/05/31 07:54:37;;;;;;;;;4.00;2.00;;;;;42.89;17.10;100735.50;5057487;27;45568;-71
2022/05/31 07:57:05;;;;;;;;;1.50;1.50;;;;;42.56;16.12;100735.09;5055607;27;45552;-72
2022/05/31 07:59:32;;;;;;;;;1.00;1.00;;;;;41.98;17.22;100735.72;5056827;27;45705;-71
2022/05/31 08:01:57;;;;;;;;;1.25;1.25;;;;;42.64;16.77;100730.06;5054002;28;45357;-70
2022/05/31 08:04:23;;;;;;;;;2.67;2.00;;;;;42.55;16.27;100733.47;5057751;27;45266;-69
2022/05/31 08:06:48;;;;;;;;;2.50;2.50;;;;;42.21;16.26;100742.13;5055421;27;45656;-71
2022/05/31 08:09:14;;;;;;;;;2.33;2.00;;;;;42.54;16.54;100743.38;5064790;27;46417;-71
2022/05/31 08:11:39;;;;;;;;;4.00;3.00;;;;;42.40;16.36;100735.72;5057575;27;45694;-69
2022/05/31 08:14:05;;;;;;;;;2.75;2.75;;;;;43.35;16.21;100733.22;5067697;27;45385;-71
2022/05/31 08:16:33;;;;;;;;;2.00;2.00;;;;;44.17;15.08;100738.88;5065106;27;45730;-70
2022/05/31 08:18:59;;;;;;;;;3.00;3.00;;;;;44.23;15.37;100729.25;5069474;27;45682;-70
2022/05/31 08:21:28;;;;;;;;;4.33;4.33;;;;;44.76;15.06;100720.72;5071869;27;45417;-69
2022/05/31 08:24:03;;;;;;;;;5.00;4.00;;;;;45.52;14.98;100732.69;5059488;27;45354;-69
2022/05/31 08:26:28;;;;;;;;;2.00;2.00;;;;;46.27;14.08;100735.69;5064946;27;45602;-69
2022/05/31 08:28:54;;;;;;;;;1.00;1.00;;;;;46.74;13.84;100725.63;5059513;27;46004;-70
2022/05/31 08:31:25;;;;;;;;;1.75;1.75;;;;;47.70;13.68;100723.78;5062787;27;45517;-70
2022/05/31 08:33:51;;;;;;;;;4.00;3.00;;;;;48.59;12.91;100725.56;5068845;27;45822;-71
2022/05/31 08:36:16;;;;;;;;;1.33;1.33;;;;;49.36;12.03;100732.13;5073358;27;45440;-69
2022/05/31 08:38:42;;;;;;;;;1.67;1.67;;;;;49.98;12.52;100728.25;5073281;27;45689;-70
2022/05/31 08:41:07;;;;;;;;;1.00;1.00;;;;;50.58;11.92;100732.59;5073170;27;45662;-71
2022/05/31 08:43:45;;;;;;;;;2.00;2.00;;;;;50.90;11.64;100724.41;5072901;28;45401;-70
2022/05/31 08:46:29;;;;;;;;;0.67;0.67;;;;;51.10;11.92;100731.81;5073359;27;45662;-71
2022/05/31 08:49:19;;;;;;;;;1.33;1.33;;;;;51.85;11.43;100728.00;5073485;27;45871;-71
2022/05/31 08:52:05;;;;;;;;;1.33;1.33;;;;;52.40;11.01;100729.69;5061496;27;45402;-70
2022/05/31 08:57:42;;;;;;;;;2.00;2.00;;;;;52.94;10.23;100728.75;5029707;28;45649;-71
2022/05/31 09:00:17;;;;;;;;;1.00;1.00;;;;;53.26;10.39;100726.88;5065782;27;45621;-71
2022/05/31 09:02:48;;;;;;;;;2.67;2.00;;;;;53.60;9.68;100721.53;5072068;27;45435;-70
2022/05/31 09:05:41;;;;;;;;;1.00;1.00;;;;;53.76;9.58;100728.94;5070404;27;45281;-71
2022/05/31 09:08:24;;;;;;;;;1.00;1.00;;;;;54.17;9.96;100723.06;5069981;27;45918;-69
2022/05/31 09:11:10;;;;;;;;;1.00;1.00;;;;;54.44;9.07;100723.09;5079089;27;46595;-70
2022/05/31 09:13:51;;;;;;;;;0.67;0.67;;;;;54.86;9.15;100718.69;5069403;27;45370;-71
2022/05/31 09:16:23;;;;;;;;;1.33;1.33;;;;;55.08;9.53;100718.06;5070268;27;45761;-71
2022/05/31 09:18:59;;;;;;;;;1.33;1.00;;;;;55.16;8.75;100712.50;5070452;27;45399;-73
2022/05/31 09:21:43;;;;;;;;;0.00;0.00;;;;;55.22;9.30;100728.06;5064363;27;45594;-71
2022/05/31 09:24:12;;;;;;;;;1.00;1.00;;;;;55.35;9.14;100728.44;5064063;27;45515;-70
2022/05/31 09:26:46;;;;;;;;;1.00;1.00;;;;;55.42;8.38;100724.19;5067054;27;45680;-70
2022/05/31 09:29:18;;;;;;;;;0.33;0.33;;;;;55.80;8.86;100724.91;5067659;27;45729;-71
2022/05/31 09:31:59;;;;;;;;;1.00;0.00;;;;;56.06;8.29;100726.91;5066567;27;46055;-69
2022/05/31 09:34:37;;;;;;;;;1.00;1.00;;;;;55.99;8.35;100730.38;5065648;27;45762;-71
2022/05/31 09:37:08;;;;;;;;;2.33;1.00;;;;;56.13;8.17;100722.63;5096862;27;45485;-70
2022/05/31 09:39:48;;;;;;;;;0.67;0.00;;;;;56.11;8.08;100719.44;5074349;27;46335;-70
2022/05/31 09:42:21;;;;;;;;;0.00;0.00;;;;;56.05;8.64;100716.47;5057386;27;48657;-71
2022/05/31 09:44:59;;;;;;;;;0.00;0.00;;;;;56.14;7.94;100725.03;5058749;27;45317;-71
2022/05/31 09:47:27;;;;;;;;;1.00;1.00;;;;;56.44;7.96;100712.81;5061201;27;45386;-70
2022/05/31 09:49:53;;;;;;;;;2.33;1.00;;;;;56.80;8.09;100718.19;5056229;28;45410;-72
2022/05/31 09:52:37;;;;;;;;;0.67;0.33;;;;;56.91;8.28;100715.25;5059350;28;45560;-72
2022/05/31 09:58:15;;;;;;;;;1.00;1.00;;;;;57.18;7.55;100707.72;5064362;27;45750;-71
2022/05/31 10:01:11;;;;;;;;;1.00;1.00;;;;;57.27;7.98;100710.41;5062122;27;45828;-71
2022/05/31 10:03:38;;;;;;;;;1.00;1.00;;;;;56.35;7.52;100713.06;5059746;27;45723;-70
2022/05/31 10:06:26;;;;;;;;;1.00;1.00;;;;;54.59;7.92;100697.34;5064151;27;45743;-70
2022/05/31 10:08:54;;;;;;;;;2.00;2.00;;;;;52.36;8.97;100699.78;5068003;27;45591;-71
2022/05/31 10:11:34;;;;;;;;;0.00;0.00;;;;;50.14;9.64;100706.66;5068618;27;46775;-71
2022/05/31 10:14:04;;;;;;;;;1.00;1.00;;;;;48.08;10.99;100711.28;5094824;27;46374;-71
2022/05/31 10:16:32;;;;;;;;;1.00;1.00;;;;;46.20;11.29;100704.81;5064862;27;45722;-72
2022/05/31 10:19:10;;;;;;;;;1.00;1.00;;;;;44.38;12.44;100700.88;5059616;27;45751;-71
2022/05/31 10:21:41;;;;;;;;;0.67;0.33;;;;;42.90;13.30;100711.19;5061216;27;45581;-70
2022/05/31 10:24:25;;;;;;;;;1.00;0.33;;;;;41.28;13.36;100702.13;5059182;27;45609;-71
2022/05/31 10:27:05;;;;;;;;;2.00;2.00;;;;;40.04;15.16;100705.13;5059526;27;45533;-72
2022/05/31 10:29:39;;;;;;;;;1.75;1.75;;;;;39.51;15.43;100709.59;5094319;27;45307;-71
2022/05/31 10:32:25;;;;;;;;;1.00;1.00;;;;;40.70;15.13;100709.44;5060749;27;45855;-70
2022/05/31 10:35:21;;;;;;;;;3.00;3.00;;;;;42.02;13.81;100703.97;5063737;27;45517;-72
2022/05/31 10:38:00;;;;;;;;;0.00;0.00;;;;;43.40;13.29;100715.38;5074743;27;45280;-73
2022/05/31 10:40:58;;;;;;;;;2.00;1.00;;;;;44.06;12.80;100702.31;5075765;27;45714;-73
2022/05/31 10:43:57;;;;;;;;;1.50;1.50;;;;;43.94;12.55;100699.25;5065011;27;45859;-71
2022/05/31 10:46:29;;;;;;;;;2.33;2.00;;;;;43.74;12.70;100703.69;5062386;27;46250;-72
2022/05/31 10:48:58;;;;;;;;;1.25;1.25;;;;;44.55;12.60;100704.63;5071694;27;45644;-71
2022/05/31 10:51:32;;;;;;;;;1.67;1.00;;;;;44.48;12.80;100701.91;5070088;27;45735;-70
2022/05/31 10:54:10;;;;;;;;;3.33;3.33;;;;;43.34;12.70;100697.78;5071263;27;45843;-70
2022/05/31 10:56:53;;;;;;;;;0.25;0.25;;;;;42.17;13.85;100710.44;5070899;27;47224;-71
2022/05/31 10:59:27;;;;;;;;;2.00;1.25;;;;;42.56;14.21;100696.78;5071404;27;45691;-70
2022/05/31 11:02:08;;;;;;;;;2.00;2.00;;;;;43.31;13.58;100701.53;5074044;27;45849;-69
2022/05/31 11:04:42;;;;;;;;;1.00;1.00;;;;;43.99;13.10;100702.44;5070102;27;45885;-72
2022/05/31 11:07:13;;;;;;;;;1.00;1.00;;;;;44.46;12.31;100701.53;5069209;27;46171;-70
2022/05/31 11:13:01;;;;;;;;;2.00;2.00;;;;;43.92;12.66;100702.59;5066053;27;45810;-71
2022/05/31 11:15:30;;;;;;;;;1.00;1.00;;;;;43.61;12.40;100701.88;5069123;27;45908;-69
2022/05/31 11:18:10;;;;;;;;;0.25;0.25;;;;;42.58;13.79;100709.56;5065324;27;47038;-71
2022/05/31 11:21:02;;;;;;;;;1.33;0.00;;;;;42.17;13.74;100710.44;5066308;27;45768;-70
2022/05/31 11:23:56;;;;;;;;;0.33;0.33;;;;;40.52;14.13;100703.78;5065888;27;45571;-71
2022/05/31 11:26:44;;;;;;;;;0.00;0.00;;;;;39.29;14.59;100705.94;5065347;27;46012;-71
2022/05/31 11:29:33;;;;;;;;;1.33;1.33;;;;;38.08;15.47;100722.16;5069848;27;46886;-72
2022/05/31 11:32:16;;;;;;;;;0.67;0.67;;;;;36.81;16.31;100707.88;5070299;27;45744;-70
2022/05/31 11:34:51;;;;;;;;;2.67;1.00;;;;;35.81;16.81;100710.91;5071188;27;45460;-70
2022/05/31 11:37:56;;;;;;;;;0.50;0.50;;;;;35.05;17.24;100708.69;5067357;27;45796;-70
2022/05/31 11:40:37;;;;;;;;;2.00;1.00;;;;;34.46;18.00;100705.84;5068716;27;46616;-70
2022/05/31 11:43:11;;;;;;;;;0.25;0.25;;;;;33.90;19.56;100701.31;5069562;27;45911;-71
2022/05/31 11:45:46;;;;;;;;;2.00;1.00;;;;;33.45;19.78;100711.94;5069356;27;45537;-70
2022/05/31 11:48:14;;;;;;;;;1.00;1.00;;;;;33.11;19.67;100708.56;5068147;27;45729;-69
2022/05/31 11:51:04;;;;;;;;;1.50;1.50;;;;;32.58;19.51;100711.53;5069735;27;45840;-73
2022/05/31 11:53:49;;;;;;;;;1.00;1.00;;;;;32.13;19.79;100712.59;5067582;27;45633;-73
2022/05/31 11:56:26;;;;;;;;;2.00;1.00;;;;;31.74;20.15;100712.94;5067147;27;45484;-72
2022/05/31 11:59:00;;;;;;;;;1.00;1.00;;;;;31.48;21.11;100708.41;5068821;27;47282;-70